Time;durP1;ratioP1;P1;durP2;ratioP2;P2;SDS_P1;SDS_P2;PMS_P1;PMS_P2;Temp;Humidity;BMP_temperature;BMP_pressure;BME280_temperature;BME280_humidity;BME280_pressure;Samples;Min_cycle;Max_cycle;Signal;HPM_P1;HPM_P2
2021/12/17 00:00:32;;;;;;;19.65;9.95;;;12.40;64.70;;;;;;6112973;23;20359;-55
2021/12/17 00:03:15;;;;;;;25.40;12.25;;;12.40;64.60;;;;;;6113293;23;20013;-52
2021/12/17 00:08:18;;;;;;;30.90;14.95;;;12.40;64.60;;;;;;6123661;23;20002;-53
2021/12/17 00:10:48;;;;;;;29.45;14.70;;;12.40;64.60;;;;;;6125475;23;20009;-54
2021/12/17 00:13:15;;;;;;;30.92;14.38;;;12.40;64.60;;;;;;6114922;23;20336;-54
2021/12/17 00:15:43;;;;;;;28.65;13.88;;;12.40;64.70;;;;;;6114367;23;19998;-55
2021/12/17 00:18:38;;;;;;;29.38;14.05;;;12.40;64.80;;;;;;6135631;23;20002;-52
2021/12/17 00:53:31;;;;;;;20.77;10.27;;;12.40;64.30;;;;;;6124401;23;20424;-55
2021/12/17 00:55:57;;;;;;;23.05;10.38;;;12.40;64.40;;;;;;6114296;23;20006;-54
2021/12/17 00:58:23;;;;;;;21.42;10.02;;;12.40;64.50;;;;;;6114417;23;20013;-50
2021/12/17 01:00:49;;;;;;;19.10;10.40;;;12.40;64.50;;;;;;6114181;23;20006;-51
2021/12/17 01:03:16;;;;;;;18.95;10.52;;;12.40;64.50;;;;;;6111824;23;20006;-51
2021/12/17 01:05:43;;;;;;;18.02;9.57;;;12.40;64.50;;;;;;6114912;23;20313;-54
2021/12/17 01:08:09;;;;;;;18.38;9.90;;;12.40;64.50;;;;;;6112454;23;20706;-56
2021/12/17 01:10:42;;;;;;;18.27;10.27;;;12.30;64.40;;;;;;6115885;23;20021;-57
2021/12/17 01:13:09;;;;;;;16.58;9.13;;;12.30;64.30;;;;;;6126169;23;20195;-54
2021/12/17 01:15:38;;;;;;;19.75;10.10;;;12.40;64.30;;;;;;6117118;23;20002;-54
2021/12/17 01:18:10;;;;;;;15.02;8.05;;;12.30;64.20;;;;;;6114501;23;20009;-55
2021/12/17 01:25:44;;;;;;;;;;;;;;;;;;;;;
2021/12/17 01:36:14;;;;;;;13.80;7.28;;;12.40;64.10;;;;;;6126088;23;20243;-52
2021/12/17 01:41:29;;;;;;;13.23;7.53;;;12.40;64.00;;;;;;6116019;23;20441;-56
2021/12/17 01:43:55;;;;;;;13.80;7.22;;;12.30;63.90;;;;;;6093534;23;20014;-55
2021/12/17 01:46:25;;;;;;;12.18;6.88;;;12.40;64.00;;;;;;6114258;23;20040;-52
2021/12/17 01:49:25;;;;;;;14.77;7.38;;;12.30;63.90;;;;;;6114362;23;20048;-55
2021/12/17 02:00:07;;;;;;;12.60;8.15;;;12.30;63.70;;;;;;6124653;23;20010;-55
2021/12/17 02:02:48;;;;;;;14.25;8.43;;;12.30;63.80;;;;;;6115371;23;20427;-54
2021/12/17 02:05:14;;;;;;;15.45;8.35;;;12.30;63.80;;;;;;6117391;23;20013;-54
2021/12/17 02:07:42;;;;;;;12.32;7.38;;;12.30;63.80;;;;;;6115147;23;20002;-57
2021/12/17 02:13:00;;;;;;;13.70;7.82;;;12.30;63.80;;;;;;6125461;23;20006;-53
2021/12/17 02:32:07;;;;;;;15.13;9.75;;;12.30;63.70;;;;;;6113970;23;20420;-54
2021/12/17 02:37:16;;;;;;;16.65;10.00;;;12.30;63.70;;;;;;6123066;23;20436;-56
2021/12/17 02:47:41;;;;;;;15.82;9.80;;;12.30;63.60;;;;;;6123133;23;20016;-55
2021/12/17 02:50:10;;;;;;;15.30;9.95;;;12.30;63.60;;;;;;6137768;23;20005;-55
2021/12/17 02:52:37;;;;;;;17.23;10.23;;;12.30;63.60;;;;;;6117206;23;20002;-57
2021/12/17 02:55:05;;;;;;;17.35;10.52;;;12.30;63.60;;;;;;6116671;23;19998;-54
2021/12/17 03:00:56;;;;;;;15.82;9.70;;;12.30;63.80;;;;;;6123807;23;20009;-57
2021/12/17 03:03:25;;;;;;;15.25;9.20;;;12.20;63.40;;;;;;6114740;23;19998;-53
2021/12/17 03:05:52;;;;;;;14.13;8.43;;;12.20;63.40;;;;;;6115129;23;20006;-55
2021/12/17 03:08:19;;;;;;;16.13;8.93;;;12.20;63.40;;;;;;6113757;23;20013;-56
2021/12/17 03:10:47;;;;;;;13.25;8.38;;;12.20;63.40;;;;;;6125605;23;20006;-55
2021/12/17 03:13:19;;;;;;;13.43;8.25;;;12.20;64.10;;;;;;6116455;23;20005;-54
2021/12/17 03:15:57;;;;;;;13.82;7.97;;;12.20;63.40;;;;;;6112814;23;20013;-52
2021/12/17 03:18:57;;;;;;;14.27;8.18;;;12.30;63.50;;;;;;6121191;23;19998;-53
2021/12/17 03:24:05;;;;;;;15.30;8.95;;;12.30;63.50;;;;;;6124996;23;20013;-55
2021/12/17 03:26:32;;;;;;;13.38;8.68;;;12.20;63.30;;;;;;6114566;23;20442;-54
2021/12/17 03:29:02;;;;;;;13.07;8.00;;;12.20;63.40;;;;;;6114755;23;20009;-55
2021/12/17 03:31:29;;;;;;;13.52;7.88;;;12.20;63.30;;;;;;6122008;23;20002;-54
2021/12/17 03:34:08;;;;;;;10.98;6.78;;;12.20;63.30;;;;;;6112581;23;20017;-53
2021/12/17 03:36:34;;;;;;;13.77;7.53;;;12.30;63.30;;;;;;6115672;23;20340;-53
2021/12/17 03:39:00;;;;;;;12.20;6.63;;;12.20;63.20;;;;;;6114523;23;20004;-55
2021/12/17 03:41:35;;;;;;;12.20;7.13;;;12.30;63.30;;;;;;6115331;23;20067;-53
2021/12/17 03:44:03;;;;;;;13.05;6.55;;;12.20;63.20;;;;;;6114154;23;20020;-55
2021/12/17 03:46:29;;;;;;;12.57;6.90;;;12.20;63.20;;;;;;6113668;23;20006;-54
2021/12/17 03:48:55;;;;;;;12.20;6.97;;;12.20;63.20;;;;;;6112722;23;20006;-54
2021/12/17 03:51:22;;;;;;;14.98;7.75;;;12.20;63.10;;;;;;6116153;23;20005;-54
2021/12/17 03:53:56;;;;;;;12.40;7.00;;;12.20;63.10;;;;;;6115100;23;20009;-54
2021/12/17 03:56:23;;;;;;;12.80;7.13;;;12.20;63.00;;;;;;6125271;23;20002;-54
2021/12/17 03:58:52;;;;;;;10.63;6.60;;;12.20;63.10;;;;;;6113292;23;20006;-55
2021/12/17 04:01:19;;;;;;;10.35;6.13;;;12.20;63.00;;;;;;6112260;23;20002;-55
2021/12/17 04:03:46;;;;;;;12.63;7.20;;;12.20;62.90;;;;;;6115043;23;20006;-57
2021/12/17 04:06:12;;;;;;;12.13;6.38;;;12.20;62.90;;;;;;6116004;23;20033;-54
2021/12/17 04:08:38;;;;;;;11.30;6.38;;;12.20;62.90;;;;;;6113215;23;20017;-55
2021/12/17 04:11:07;;;;;;;10.40;6.03;;;12.10;62.80;;;;;;6124597;23;19998;-53
2021/12/17 04:13:38;;;;;;;9.48;5.63;;;12.20;62.80;;;;;;6114443;23;20006;-56
2021/12/17 04:16:08;;;;;;;9.27;5.50;;;12.20;62.60;;;;;;6124192;23;20002;-55
2021/12/17 04:18:38;;;;;;;8.52;5.20;;;12.10;62.50;;;;;;6113325;23;20005;-54
2021/12/17 04:21:13;;;;;;;8.85;5.40;;;12.10;62.40;;;;;;6116433;23;19998;-54
2021/12/17 04:23:44;;;;;;;8.50;4.82;;;12.10;62.30;;;;;;6115819;23;20002;-57
2021/12/17 04:26:11;;;;;;;7.75;4.63;;;12.10;62.20;;;;;;6124419;23;20511;-53
2021/12/17 04:28:43;;;;;;;6.78;4.53;;;12.10;62.30;;;;;;6112749;23;20002;-54
2021/12/17 04:31:10;;;;;;;7.95;5.07;;;12.10;62.30;;;;;;6114324;23;20009;-57
2021/12/17 04:33:38;;;;;;;8.20;5.25;;;12.10;63.00;;;;;;6112465;23;19998;-55
2021/12/17 04:36:06;;;;;;;7.45;4.80;;;12.10;62.30;;;;;;6112960;23;20423;-54
2021/12/17 04:38:32;;;;;;;8.73;5.15;;;12.10;62.30;;;;;;6114319;23;20002;-53
2021/12/17 04:41:21;;;;;;;6.63;4.38;;;12.10;62.30;;;;;;6113248;23;20000;-56
2021/12/17 04:44:08;;;;;;;7.00;4.35;;;12.10;62.30;;;;;;6115586;23;20059;-54
2021/12/17 04:46:44;;;;;;;5.90;3.72;;;12.10;62.20;;;;;;6122783;23;20006;-52
2021/12/17 04:57:30;;;;;;;;;;;12.10;61.80;;;;;;6126541;23;20017;-56
2021/12/17 05:00:01;;;;;;;6.28;4.18;;;12.10;61.90;;;;;;6117212;23;19904;-55
2021/12/17 05:02:29;;;;;;;5.60;3.83;;;12.10;61.60;;;;;;6115209;23;20009;-51
2021/12/17 05:04:55;;;;;;;7.05;4.53;;;12.10;61.50;;;;;;6115778;23;20010;-54
2021/12/17 05:07:23;;;;;;;7.93;4.35;;;12.00;61.40;;;;;;6113858;23;20014;-57
2021/12/17 05:10:02;;;;;;;5.65;3.97;;;12.00;61.40;;;;;;6114016;23;20022;-54
2021/12/17 05:18:46;;;;;;;;;;;12.00;61.20;;;;;;6118926;23;20482;-56
2021/12/17 05:20:50;;;;;;;18.20;9.80;;;12.00;61.30;;;;;;6117677;23;19901;-54
2021/12/17 05:23:24;;;;;;;23.38;11.32;;;12.00;61.00;;;;;;6110953;23;20025;-52
2021/12/17 05:25:53;;;;;;;12.90;7.35;;;12.00;60.90;;;;;;6124822;23;20521;-53
2021/12/17 05:28:20;;;;;;;9.13;5.47;;;12.00;61.50;;;;;;6112159;23;20459;-56
2021/12/17 05:30:47;;;;;;;8.18;4.40;;;12.00;60.90;;;;;;6114966;23;20009;-52
2021/12/17 05:33:15;;;;;;;6.47;3.92;;;12.00;60.80;;;;;;6114862;23;20010;-52
2021/12/17 05:35:41;;;;;;;6.65;3.88;;;11.90;60.60;;;;;;6115632;23;20010;-54
2021/12/17 05:38:09;;;;;;;5.03;3.30;;;11.90;60.70;;;;;;6116206;23;20005;-56
2021/12/17 05:40:35;;;;;;;4.43;3.28;;;11.90;60.60;;;;;;6117267;23;20002;-55
2021/12/17 05:43:02;;;;;;;4.28;3.15;;;11.90;60.70;;;;;;6114786;23;20009;-55
2021/12/17 05:45:37;;;;;;;5.32;3.70;;;11.90;60.70;;;;;;6115528;23;20265;-55
2021/12/17 05:48:07;;;;;;;5.50;3.53;;;11.90;60.70;;;;;;6115410;23;20002;-56
2021/12/17 05:50:35;;;;;;;3.70;2.63;;;11.90;60.60;;;;;;6115754;23;20013;-54
2021/12/17 05:53:02;;;;;;;4.22;2.95;;;11.90;60.60;;;;;;6116037;23;20002;-52
2021/12/17 05:55:29;;;;;;;4.25;2.85;;;11.90;60.60;;;;;;6116994;23;20006;-55
2021/12/17 05:57:55;;;;;;;4.25;2.95;;;11.90;60.50;;;;;;6115755;23;19998;-54
2021/12/17 06:00:22;;;;;;;4.78;3.53;;;11.90;60.50;;;;;;6115505;23;20013;-54
2021/12/17 06:02:50;;;;;;;66.72;26.63;;;11.90;60.50;;;;;;6114608;23;20024;-51
2021/12/17 06:05:17;;;;;;;27.67;13.82;;;11.90;60.50;;;;;;6115797;23;20014;-53
2021/12/17 06:07:43;;;;;;;12.27;6.28;;;11.90;60.50;;;;;;6114893;23;20006;-52
2021/12/17 06:10:10;;;;;;;8.48;4.13;;;11.90;60.50;;;;;;6116418;23;20017;-54
2021/12/17 06:12:37;;;;;;;5.07;3.38;;;11.90;60.50;;;;;;6116027;23;20002;-54
2021/12/17 06:15:05;;;;;;;5.90;3.70;;;11.90;60.40;;;;;;6115908;23;20009;-54
2021/12/17 06:17:32;;;;;;;5.35;3.40;;;11.90;60.50;;;;;;6113669;23;20016;-53
2021/12/17 06:19:58;;;;;;;4.53;3.55;;;11.90;60.60;;;;;;6116861;23;20006;-55
2021/12/17 06:22:24;;;;;;;3.95;3.20;;;11.80;60.30;;;;;;6114990;23;20010;-53
2021/12/17 06:24:52;;;;;;;5.45;4.03;;;11.80;60.00;;;;;;6116644;23;20021;-52
2021/12/17 06:27:20;;;;;;;4.80;3.50;;;11.80;59.90;;;;;;6115651;23;19998;-54
2021/12/17 06:29:47;;;;;;;5.40;3.67;;;11.80;59.90;;;;;;6113624;23;19994;-54
2021/12/17 06:32:13;;;;;;;4.18;3.25;;;11.80;59.90;;;;;;6113770;23;20044;-55
2021/12/17 06:34:39;;;;;;;4.85;3.40;;;11.80;59.90;;;;;;6116429;23;19998;-57
2021/12/17 06:37:06;;;;;;;4.90;3.55;;;11.90;60.00;;;;;;6115993;23;20336;-50
2021/12/17 06:39:34;;;;;;;6.05;4.15;;;11.80;60.10;;;;;;6117037;23;20285;-53
2021/12/17 06:42:00;;;;;;;7.68;3.88;;;11.80;60.20;;;;;;6114250;23;20002;-54
2021/12/17 06:44:27;;;;;;;5.97;4.10;;;11.80;60.20;;;;;;6116293;23;20002;-51
2021/12/17 07:01:14;;;;;;;5.07;3.67;;;11.80;60.30;;;;;;6123118;23;20336;-53
2021/12/17 07:06:09;;;;;;;7.30;3.88;;;11.80;60.40;;;;;;6124591;23;20454;-54
2021/12/17 07:21:58;;;;;;;7.57;4.55;;;11.80;60.00;;;;;;6123139;23;20112;-54
2021/12/17 07:35:51;;;;;;;9.00;5.47;;;11.80;59.70;;;;;;6124313;23;20446;-53
2021/12/17 07:40:27;;;;;;;9.75;5.93;;;11.70;59.70;;;;;;6123078;23;20020;-53
2021/12/17 07:42:54;;;;;;;9.68;6.72;;;11.70;59.70;;;;;;6113111;23;20014;-55
2021/12/17 07:45:20;;;;;;;8.73;6.53;;;11.70;59.90;;;;;;6136638;23;20010;-54
2021/12/17 07:47:46;;;;;;;9.50;6.47;;;11.70;60.10;;;;;;6112726;23;19998;-55
2021/12/17 07:50:13;;;;;;;8.00;5.78;;;11.70;60.20;;;;;;6115237;23;20002;-54
2021/12/17 07:52:39;;;;;;;9.82;6.47;;;11.70;60.30;;;;;;6137266;23;20009;-54
2021/12/17 07:55:05;;;;;;;9.93;6.60;;;11.60;60.20;;;;;;6114904;23;20002;-55
2021/12/17 07:57:31;;;;;;;10.32;6.63;;;11.60;60.20;;;;;;6113397;23;20062;-54
2021/12/17 07:59:57;;;;;;;11.23;7.28;;;11.70;60.30;;;;;;6112822;23;20029;-56
2021/12/17 08:02:24;;;;;;;10.38;6.40;;;11.70;60.40;;;;;;6133553;23;20010;-55
2021/12/17 08:04:50;;;;;;;8.70;5.15;;;11.70;60.60;;;;;;6112460;23;20248;-55
2021/12/17 08:07:16;;;;;;;9.38;5.43;;;11.70;60.60;;;;;;6113128;23;20006;-54
2021/12/17 08:09:43;;;;;;;8.10;5.88;;;11.70;60.60;;;;;;6114774;23;20017;-55
2021/12/17 08:12:10;;;;;;;8.07;5.85;;;11.70;60.70;;;;;;6114570;23;19994;-55
2021/12/17 08:14:36;;;;;;;9.25;6.13;;;11.70;60.60;;;;;;6110731;23;19998;-56
2021/12/17 08:25:13;;;;;;;9.50;6.00;;;11.70;60.40;;;;;;6123822;23;20017;-53
2021/12/17 08:32:43;;;;;;;11.27;6.47;;;11.70;60.30;;;;;;6112953;23;20002;-55
2021/12/17 08:35:11;;;;;;;13.27;7.20;;;11.70;60.20;;;;;;6113913;23;20002;-56
2021/12/17 08:37:38;;;;;;;10.15;7.00;;;11.70;60.30;;;;;;6114810;23;20442;-54
2021/12/17 08:40:06;;;;;;;10.10;7.00;;;11.70;60.50;;;;;;6114623;23;19998;-53
2021/12/17 08:42:32;;;;;;;10.05;6.88;;;11.70;60.70;;;;;;6111813;23;20002;-55
2021/12/17 08:45:00;;;;;;;11.30;7.47;;;11.70;60.70;;;;;;6113511;23;20022;-52
2021/12/17 08:47:26;;;;;;;7.53;5.63;;;11.70;60.80;;;;;;6135732;23;20150;-55
2021/12/17 08:49:53;;;;;;;16.38;7.10;;;11.70;61.10;;;;;;6112892;23;20427;-55
2021/12/17 08:52:19;;;;;;;26.20;12.95;;;11.70;61.20;;;;;;6114134;23;20005;-54
2021/12/17 08:54:46;;;;;;;12.20;6.78;;;11.70;61.30;;;;;;6113412;23;20006;-54
2021/12/17 08:57:12;;;;;;;12.23;6.78;;;11.70;61.30;;;;;;6114264;23;20002;-55
2021/12/17 08:59:39;;;;;;;9.10;6.35;;;11.70;61.30;;;;;;6113686;23;20010;-55
2021/12/17 09:02:05;;;;;;;9.32;6.55;;;11.80;61.30;;;;;;6110744;23;20447;-54
2021/12/17 09:04:31;;;;;;;12.57;7.45;;;11.80;61.20;;;;;;6112319;23;20002;-55
2021/12/17 09:06:58;;;;;;;12.90;8.48;;;11.80;61.20;;;;;;6109901;23;20380;-56
2021/12/17 09:09:24;;;;;;;11.77;7.95;;;11.80;61.20;;;;;;6113951;23;20013;-54
2021/12/17 09:11:51;;;;;;;12.25;7.95;;;11.80;61.10;;;;;;6114542;23;20419;-55
2021/12/17 09:14:19;;;;;;;14.38;9.50;;;11.80;61.00;;;;;;6113179;23;20518;-56
2021/12/17 09:16:47;;;;;;;13.55;8.68;;;11.90;60.90;;;;;;6110600;23;20002;-56
2021/12/17 09:19:13;;;;;;;15.40;9.82;;;11.90;60.80;;;;;;6112071;23;20013;-53
2021/12/17 09:21:40;;;;;;;13.63;10.10;;;11.90;60.70;;;;;;6114694;23;20447;-55
2021/12/17 09:24:06;;;;;;;13.98;9.18;;;11.90;60.80;;;;;;6112146;23;20010;-51
2021/12/17 09:26:35;;;;;;;14.05;9.82;;;11.90;60.80;;;;;;6114853;23;20010;-56
2021/12/17 09:29:02;;;;;;;12.02;9.07;;;11.90;60.90;;;;;;6111950;23;20021;-54
2021/12/17 09:31:28;;;;;;;13.90;9.85;;;11.90;60.90;;;;;;6112446;23;20002;-55
2021/12/17 09:33:54;;;;;;;14.82;9.70;;;11.90;60.80;;;;;;6113346;23;20005;-56
2021/12/17 09:36:21;;;;;;;16.00;10.52;;;11.90;60.80;;;;;;6116615;23;20002;-55
2021/12/17 09:38:49;;;;;;;15.35;9.98;;;12.00;61.00;;;;;;6115702;23;20006;-51
2021/12/17 09:41:16;;;;;;;13.82;9.25;;;12.00;60.90;;;;;;6115977;23;20032;-55
2021/12/17 09:43:44;;;;;;;16.20;10.35;;;12.00;61.00;;;;;;6110233;23;20039;-55
2021/12/17 09:46:10;;;;;;;15.75;10.43;;;12.00;60.90;;;;;;6105247;23;20002;-55
2021/12/17 09:48:36;;;;;;;14.85;10.55;;;12.00;60.60;;;;;;6112721;23;20010;-57
2021/12/17 09:51:05;;;;;;;15.82;9.93;;;12.00;60.40;;;;;;6116310;23;20020;-54
2021/12/17 09:53:33;;;;;;;17.77;10.45;;;12.00;60.50;;;;;;6115769;23;20332;-54
2021/12/17 09:56:00;;;;;;;17.45;10.57;;;11.90;60.50;;;;;;6113924;23;20308;-55
2021/12/17 09:58:26;;;;;;;14.82;10.02;;;11.90;60.90;;;;;;6114666;23;20502;-55
2021/12/17 10:00:52;;;;;;;14.25;10.30;;;11.90;61.10;;;;;;6107400;23;20010;-53
2021/12/17 10:03:20;;;;;;;17.55;10.75;;;11.90;61.30;;;;;;6106019;23;20176;-53
2021/12/17 10:05:46;;;;;;;16.85;10.73;;;11.90;61.50;;;;;;6113586;23;20316;-54
2021/12/17 10:08:14;;;;;;;15.02;10.65;;;11.90;61.50;;;;;;6114043;23;20066;-57
2021/12/17 10:10:43;;;;;;;18.48;11.15;;;11.90;61.70;;;;;;6115839;23;20018;-53
2021/12/17 10:13:22;;;;;;;16.00;11.00;;;11.90;61.70;;;;;;6113478;23;20005;-54
2021/12/17 10:15:58;;;;;;;17.80;11.90;;;11.90;61.70;;;;;;6111663;23;20013;-55
2021/12/17 10:18:36;;;;;;;15.73;11.52;;;12.00;61.70;;;;;;6110760;23;20001;-57
2021/12/17 10:21:08;;;;;;;19.38;12.02;;;12.00;61.80;;;;;;6124979;23;20291;-55
2021/12/17 10:23:35;;;;;;;18.70;12.57;;;12.00;61.90;;;;;;6114409;23;20009;-55
2021/12/17 10:26:02;;;;;;;17.73;11.98;;;12.00;61.90;;;;;;6112770;23;20029;-55
2021/12/17 10:28:30;;;;;;;19.27;12.60;;;12.10;62.00;;;;;;6110922;23;20441;-54
2021/12/17 10:30:57;;;;;;;21.73;13.13;;;12.10;62.00;;;;;;6108168;23;20006;-56
2021/12/17 10:33:26;;;;;;;24.40;13.20;;;12.10;61.90;;;;;;6111585;23;20017;-54
2021/12/17 10:35:54;;;;;;;18.73;12.23;;;12.10;61.80;;;;;;6109777;23;20491;-51
2021/12/17 10:38:25;;;;;;;20.27;12.95;;;12.20;61.80;;;;;;6113857;23;20002;-55
2021/12/17 10:41:05;;;;;;;19.70;12.65;;;12.20;61.80;;;;;;6112753;23;20446;-55
2021/12/17 10:43:37;;;;;;;25.70;13.20;;;12.20;61.70;;;;;;6114705;23;20009;-56
2021/12/17 10:46:24;;;;;;;21.30;13.07;;;12.20;61.50;;;;;;6110410;23;20010;-54
2021/12/17 10:51:29;;;;;;;19.33;12.95;;;12.20;61.00;;;;;;6125133;23;20009;-51
2021/12/17 10:54:09;;;;;;;24.90;14.27;;;12.20;61.20;;;;;;6114669;23;19998;-56
2021/12/17 10:56:37;;;;;;;19.50;12.68;;;12.10;61.30;;;;;;6115859;23;20006;-53
2021/12/17 10:59:04;;;;;;;27.23;14.38;;;12.10;61.50;;;;;;6114504;23;20467;-53
2021/12/17 11:01:44;;;;;;;22.50;13.45;;;12.10;61.70;;;;;;6113007;23;20010;-54
2021/12/17 11:04:23;;;;;;;22.98;13.30;;;12.00;61.80;;;;;;6115278;23;20013;-55
2021/12/17 11:06:58;;;;;;;23.02;13.90;;;12.00;62.20;;;;;;6115094;23;20006;-56
2021/12/17 11:09:50;;;;;;;20.85;14.20;;;12.00;62.40;;;;;;6136896;23;20018;-57
2021/12/17 11:12:41;;;;;;;24.95;15.25;;;12.00;62.60;;;;;;6125193;23;20316;-52
2021/12/17 11:15:19;;;;;;;28.65;16.80;;;11.90;62.50;;;;;;6122958;23;19994;-54
2021/12/17 11:17:55;;;;;;;25.33;15.98;;;12.00;62.70;;;;;;6112409;23;20026;-55
2021/12/17 11:20:27;;;;;;;23.88;15.73;;;11.90;62.80;;;;;;6123757;23;20001;-54
2021/12/17 11:22:56;;;;;;;28.35;16.25;;;12.00;62.80;;;;;;6112401;23;20010;-53
2021/12/17 11:25:25;;;;;;;27.55;18.58;;;11.90;63.50;;;;;;6114605;23;20332;-54
2021/12/17 11:27:52;;;;;;;27.63;14.52;;;11.90;62.80;;;;;;6114023;23;20010;-52
2021/12/17 11:30:22;;;;;;;28.63;16.77;;;11.90;63.00;;;;;;6088945;23;19998;-54
2021/12/17 11:32:49;;;;;;;28.52;15.75;;;11.90;63.10;;;;;;6112122;23;19998;-57
2021/12/17 11:35:19;;;;;;;25.15;15.50;;;11.90;63.20;;;;;;6114447;23;20001;-57
2021/12/17 11:37:48;;;;;;;26.52;16.70;;;11.90;63.30;;;;;;6114788;23;20006;-54
2021/12/17 11:40:22;;;;;;;29.55;16.88;;;11.90;63.30;;;;;;6115497;23;20272;-53
2021/12/17 11:43:23;;;;;;;28.73;16.70;;;11.90;63.20;;;;;;6124005;23;20001;-52
2021/12/17 11:46:02;;;;;;;26.17;16.30;;;11.90;63.30;;;;;;6113599;23;20335;-53
2021/12/17 11:48:31;;;;;;;28.17;17.67;;;11.90;63.30;;;;;;6112803;23;19998;-55
2021/12/17 11:51:19;;;;;;;28.10;18.38;;;11.90;63.30;;;;;;6114244;23;20034;-57
2021/12/17 11:53:54;;;;;;;24.50;15.82;;;12.00;63.30;;;;;;6114921;23;19994;-56
2021/12/17 11:56:47;;;;;;;27.70;16.80;;;12.00;63.30;;;;;;6111896;23;20021;-53
2021/12/17 11:59:25;;;;;;;28.17;16.75;;;12.00;63.30;;;;;;6114974;23;20002;-55
2021/12/17 12:02:01;;;;;;;29.75;18.35;;;12.00;63.30;;;;;;6113118;23;20013;-53
2021/12/17 12:04:33;;;;;;;28.45;18.10;;;12.00;63.30;;;;;;6115447;23;20028;-56
2021/12/17 12:07:03;;;;;;;30.15;18.65;;;12.00;63.30;;;;;;6115314;23;20243;-52
2021/12/17 12:10:08;;;;;;;31.30;18.58;;;12.00;63.30;;;;;;6112929;23;20013;-52
2021/12/17 12:12:34;;;;;;;31.85;18.52;;;12.00;63.40;;;;;;6113577;23;20010;-55
2021/12/17 12:15:23;;;;;;;37.20;20.13;;;11.90;63.30;;;;;;6114210;23;20005;-56
2021/12/17 12:18:03;;;;;;;30.63;18.63;;;11.90;63.40;;;;;;6112393;23;20065;-53
2021/12/17 12:20:47;;;;;;;33.33;18.80;;;11.80;63.70;;;;;;6112367;23;20017;-55
2021/12/17 12:23:14;;;;;;;;;;;11.80;63.90;;;;;;6113195;23;20006;-52
2021/12/17 12:25:40;;;;;;;30.98;17.92;;;11.80;64.00;;;;;;6114313;23;19908;-55
2021/12/17 12:28:06;;;;;;;32.70;19.10;;;11.80;64.00;;;;;;6112887;23;20009;-54
2021/12/17 12:30:37;;;;;;;34.85;20.13;;;11.80;64.10;;;;;;6114134;23;20196;-53
2021/12/17 12:33:08;;;;;;;33.83;20.10;;;11.70;64.30;;;;;;6112377;23;20010;-54
2021/12/17 12:35:35;;;;;;;37.40;22.45;;;11.80;64.60;;;;;;6122366;23;20442;-56
2021/12/17 12:38:19;;;;;;;36.35;20.67;;;11.70;64.70;;;;;;6114015;23;20005;-53
2021/12/17 12:40:56;;;;;;;36.67;20.80;;;11.80;64.90;;;;;;6114022;23;20404;-53
2021/12/17 12:43:33;;;;;;;33.92;20.50;;;11.70;64.80;;;;;;6124830;23;20002;-55
2021/12/17 12:45:59;;;;;;;33.78;20.77;;;11.80;64.80;;;;;;6114582;23;20118;-55
2021/12/17 12:48:36;;;;;;;38.88;22.65;;;11.70;64.80;;;;;;6112735;23;19998;-56
2021/12/17 12:51:12;;;;;;;36.70;20.85;;;11.70;65.00;;;;;;6113622;23;20653;-54
2021/12/17 12:53:43;;;;;;;35.00;20.08;;;11.70;65.20;;;;;;6115390;23;20420;-52
2021/12/17 12:56:16;;;;;;;35.45;20.30;;;11.70;65.40;;;;;;6124140;23;20376;-54
2021/12/17 12:58:48;;;;;;;38.22;21.02;;;11.60;65.60;;;;;;6122814;23;19998;-53
2021/12/17 13:01:16;;;;;;;36.90;21.48;;;11.60;65.70;;;;;;6111146;23;20305;-56
2021/12/17 13:03:44;;;;;;;41.28;22.77;;;11.60;65.90;;;;;;6114792;23;20013;-57
2021/12/17 13:06:17;;;;;;;33.53;21.02;;;11.60;66.00;;;;;;6113301;23;20005;-53
2021/12/17 13:08:52;;;;;;;37.75;21.60;;;11.60;66.10;;;;;;6122128;23;20016;-55
2021/12/17 13:11:19;;;;;;;35.95;21.58;;;11.60;66.20;;;;;;6116556;23;20021;-52
2021/12/17 13:13:58;;;;;;;38.95;22.55;;;11.60;66.30;;;;;;6116395;23;20002;-54
2021/12/17 13:24:17;;;;;;;38.35;22.40;;;11.60;66.40;;;;;;6116460;23;20017;-56
2021/12/17 13:27:15;;;;;;;45.00;23.30;;;11.60;66.50;;;;;;6113856;23;20014;-56
2021/12/17 13:29:44;;;;;;;43.67;23.45;;;11.60;66.70;;;;;;6103305;23;20006;-54
2021/12/17 13:32:12;;;;;;;43.47;23.63;;;11.60;66.90;;;;;;6113233;23;20021;-54
2021/12/17 13:34:51;;;;;;;37.95;22.98;;;11.60;67.00;;;;;;6114136;23;20292;-55
2021/12/17 13:37:18;;;;;;;52.38;24.63;;;11.60;67.20;;;;;;6124648;23;20013;-53
2021/12/17 13:39:57;;;;;;;42.20;23.85;;;11.60;67.20;;;;;;6116719;23;20320;-50
2021/12/17 13:42:35;;;;;;;52.65;24.85;;;11.70;67.40;;;;;;6124496;23;20331;-52
2021/12/17 13:45:11;;;;;;;47.17;25.30;;;11.70;67.30;;;;;;6126535;23;20355;-57
2021/12/17 13:47:40;;;;;;;47.53;24.08;;;11.70;67.30;;;;;;6124124;23;20002;-55
2021/12/17 13:50:09;;;;;;;45.95;22.65;;;11.80;67.30;;;;;;6115405;23;20005;-56
2021/12/17 13:52:43;;;;;;;39.85;23.05;;;11.80;67.30;;;;;;6116692;23;19994;-52
2021/12/17 13:55:12;;;;;;;42.17;23.50;;;11.90;67.20;;;;;;6125294;23;20404;-56
2021/12/17 13:57:40;;;;;;;45.00;25.08;;;11.90;67.10;;;;;;6115169;23;20002;-56
2021/12/17 14:00:21;;;;;;;48.45;23.83;;;11.90;67.60;;;;;;6116350;23;20339;-56
2021/12/17 14:02:49;;;;;;;48.10;24.52;;;11.90;66.80;;;;;;6120534;23;19998;-54
2021/12/17 14:05:28;;;;;;;45.40;24.15;;;12.00;66.70;;;;;;6112330;23;20320;-56
2021/12/17 14:08:00;;;;;;;44.58;23.67;;;12.00;66.60;;;;;;6112103;23;20014;-57
2021/12/17 14:10:33;;;;;;;38.67;23.00;;;12.00;66.50;;;;;;6115422;23;20025;-57
2021/12/17 14:13:01;;;;;;;42.75;23.85;;;12.00;66.60;;;;;;6124944;23;20005;-52
2021/12/17 14:15:30;;;;;;;41.58;22.48;;;11.90;66.50;;;;;;6113002;23;20423;-56
2021/12/17 14:17:59;;;;;;;46.17;23.13;;;12.00;66.60;;;;;;6113853;23;20029;-53
2021/12/17 14:20:28;;;;;;;45.15;25.15;;;12.00;66.60;;;;;;6115409;23;20009;-56
2021/12/17 14:23:05;;;;;;;42.10;23.40;;;12.00;66.70;;;;;;6115958;23;20436;-54
2021/12/17 14:25:34;;;;;;;45.75;24.00;;;12.00;66.70;;;;;;6124818;23;20008;-55
2021/12/17 14:28:12;;;;;;;42.40;24.13;;;12.00;66.60;;;;;;6111912;23;20501;-53
2021/12/17 14:30:40;;;;;;;43.63;23.63;;;12.00;66.60;;;;;;6136521;23;20364;-53
2021/12/17 14:33:12;;;;;;;39.92;23.77;;;12.10;66.70;;;;;;6111378;23;20319;-51
2021/12/17 14:35:44;;;;;;;47.42;25.15;;;12.10;66.50;;;;;;6123415;23;20328;-55
2021/12/17 14:38:11;;;;;;;47.63;23.50;;;12.00;66.30;;;;;;6122497;23;19995;-53
2021/12/17 14:40:50;;;;;;;46.60;24.65;;;12.10;66.30;;;;;;6113420;23;20017;-56
2021/12/17 14:43:28;;;;;;;47.83;25.63;;;12.10;66.50;;;;;;6122569;23;20021;-55
2021/12/17 14:46:39;;;;;;;51.20;25.80;;;12.10;66.50;;;;;;6114616;23;20014;-56
2021/12/17 15:01:17;;;;;;;44.90;24.17;;;11.90;66.60;;;;;;6133526;23;20013;-53
2021/12/17 15:03:43;;;;;;;48.45;24.20;;;12.00;66.60;;;;;;6123990;23;20001;-52
2021/12/17 15:06:15;;;;;;;52.97;26.40;;;11.90;66.60;;;;;;6115701;23;20002;-55
2021/12/17 15:08:42;;;;;;;48.60;25.70;;;11.90;66.60;;;;;;6111316;23;20472;-53
2021/12/17 15:11:36;;;;;;;52.78;26.02;;;11.90;66.60;;;;;;6124015;23;20117;-52
2021/12/17 15:14:03;;;;;;;52.25;25.52;;;11.90;66.50;;;;;;6123169;23;20005;-54
2021/12/17 15:16:29;;;;;;;47.05;23.52;;;11.90;66.60;;;;;;6112015;23;20049;-52
2021/12/17 15:18:55;;;;;;;54.28;25.42;;;11.90;66.60;;;;;;6113716;23;20327;-54
2021/12/17 15:21:21;;;;;;;55.03;25.85;;;11.90;66.60;;;;;;6114323;23;20010;-52
2021/12/17 15:23:48;;;;;;;49.22;24.65;;;12.00;66.60;;;;;;6112866;23;20010;-55
2021/12/17 15:26:14;;;;;;;52.15;24.75;;;11.90;66.50;;;;;;6114870;23;20455;-54
2021/12/17 15:28:40;;;;;;;49.83;23.70;;;11.90;66.50;;;;;;6111916;23;20013;-53
2021/12/17 15:31:08;;;;;;;52.75;24.63;;;11.90;66.50;;;;;;6112118;23;20005;-57
2021/12/17 15:33:36;;;;;;;52.65;25.20;;;11.90;66.60;;;;;;6113881;23;20009;-51
2021/12/17 15:36:03;;;;;;;49.95;23.90;;;11.90;66.60;;;;;;6114516;23;20447;-56
2021/12/17 15:38:29;;;;;;;48.30;23.92;;;11.90;66.70;;;;;;6111309;23;20006;-54
2021/12/17 15:40:55;;;;;;;48.33;22.92;;;11.90;66.60;;;;;;6114443;23;19998;-53
2021/12/17 15:43:22;;;;;;;44.92;22.30;;;11.90;66.60;;;;;;6114670;23;19995;-55
2021/12/17 15:45:50;;;;;;;43.28;22.30;;;11.90;66.40;;;;;;6113175;23;20013;-55
2021/12/17 15:48:18;;;;;;;52.78;24.27;;;11.90;66.40;;;;;;6113049;23;20006;-56
2021/12/17 15:50:45;;;;;;;58.72;25.60;;;11.80;66.40;;;;;;6115080;23;20423;-50
2021/12/17 15:53:11;;;;;;;44.60;22.65;;;11.90;66.50;;;;;;6115612;23;20261;-53
2021/12/17 15:55:40;;;;;;;43.47;20.95;;;11.80;66.30;;;;;;6113307;23;20009;-55
2021/12/17 15:58:08;;;;;;;49.10;21.75;;;11.80;66.30;;;;;;6113117;23;20339;-55
2021/12/17 16:00:36;;;;;;;42.97;21.88;;;11.90;66.40;;;;;;6111597;23;20010;-55